Strona główna
METAR-TAF:

METAR-TAF

Lotnisko :

Port lotniczy Douala

Duala, Kamerun

Szerokość geograficzna: 04-00N, Długość geograficzna: 009-44E, wysokość: 10 m

Aktualna obserwacja pogody

Raport powstał 48 minut temu, godzina 16:00 UTC
Wiatr 4 kt z kierunków zmiennych
Temperatura 30°C
Wilgotność 75%
Ciśnienie 1006 hPa
Widzialność 10 km lub więcej
Przerywane chmury na wysokości 1600 ft
Mało chmury na wysokości 2000 ft, Cumulonimbus.

METAR: FKKD 061600Z VRB04KT 9999 BKN016 FEW020CB 30/25 Q1006 NOSIG

czas: 17:48 (16:48 UTC)

Prognoza

Raport powstał 5 godziny i 48 minut temu, godzina 11:00 UTC
Prognoza ważna od 06 godzina 12 UTC do 07 godzina 18 UTC
Wiatr 5 kt z kierunków zmiennych
Widzialność: 8000 m
Przerywane chmury na wysokości 1600 ft
Mało chmury na wysokości 2000 ft, Cumulonimbus.
Przejściowo
od 07 godzina 04 UTC do 07 godzina 07 UTC
Widzialność: 3000 m
zamglenie

TAF: FKKD 061100Z 0612/0718 VRB05KT 8000 BKN016 FEW020CB TEMPO 0704/0707 3000 BR

Obserwacja i prognoza pogody dla ponad 4000 lotnisk (raport METAR i TAF).

Dostępne stacje oznaczono żółtymi i czerwonymi punktami na mapie.

Najedź kursorem aby zobaczyć nazwę stacji.

Kliknij aby zobaczyć obserwacje i prognozy pogody.

Aby zmienić mapę: kliknij na zielony przycisk z czarnym krzyżykiem, aby powiększyć; na zielony przycisk z myślnikiem, aby pomniejszyć; na zielone strzałki, aby przejść do map sąsiednich.


METAR-TAF: